Time;durP1;ratioP1;P1;durP2;ratioP2;P2;SDS_P1;SDS_P2;PMS_P1;PMS_P2;Temp;Humidity;BMP_temperature;BMP_pressure;BME280_temperature;BME280_humidity;BME280_pressure;Samples;Min_cycle;Max_cycle;Signal;HPM_P1;HPM_P2
2023/09/30 00:01:41;;;;;;;1.90;1.80;;;;;;;23.14;68.69;98179.16;5012407;28;20249;-25
2023/09/30 00:04:09;;;;;;;2.20;1.90;;;;;;;23.14;68.76;98183.41;5010498;28;20716;-25
2023/09/30 00:06:36;;;;;;;1.93;1.73;;;;;;;23.12;68.75;98180.81;5011800;28;20683;-25
2023/09/30 00:09:03;;;;;;;3.23;2.20;;;;;;;23.14;68.76;98191.09;5011734;28;20221;-25
2023/09/30 00:11:29;;;;;;;2.07;1.87;;;;;;;23.14;68.95;98197.13;5006100;28;20198;-25
2023/09/30 00:13:56;;;;;;;2.10;1.90;;;;;;;23.14;68.58;98191.09;5012157;28;20206;-25
2023/09/30 00:16:23;;;;;;;1.73;1.63;;;;;;;23.14;68.77;98197.13;5009595;28;20226;-25
2023/09/30 00:18:50;;;;;;;2.10;1.90;;;;;;;23.14;68.59;98197.13;5011806;28;20218;-25
2023/09/30 00:21:17;;;;;;;2.07;1.80;;;;;;;23.15;68.83;98205.69;5011835;28;20244;-25
2023/09/30 00:23:44;;;;;;;1.63;1.53;;;;;;;23.14;68.59;98209.94;5008301;28;20202;-25
2023/09/30 00:26:10;;;;;;;2.50;1.90;;;;;;;23.15;68.74;98214.25;5011516;28;20206;-25
2023/09/30 00:28:37;;;;;;;2.03;1.83;;;;;;;23.15;68.74;98208.25;5000239;28;20238;-25
2023/09/30 00:31:10;;;;;;;2.37;2.17;;;;;;;23.15;68.77;98208.25;5007393;28;20660;-25
2023/09/30 00:33:37;;;;;;;2.13;1.80;;;;;;;23.15;68.72;98208.25;4998725;28;20463;-25
2023/09/30 00:36:08;;;;;;;2.17;1.97;;;;;;;23.15;68.73;98210.81;5011493;28;20748;-25
2023/09/30 00:38:36;;;;;;;2.23;1.80;;;;;;;23.13;68.73;98213.34;5011640;28;20671;-25
2023/09/30 00:41:03;;;;;;;2.20;2.00;;;;;;;23.13;68.66;98213.34;5011903;28;20256;-25
2023/09/30 00:43:29;;;;;;;2.67;1.97;;;;;;;23.14;68.69;98215.06;5011367;28;20202;-25
2023/09/30 00:46:05;;;;;;;1.73;1.63;;;;;;;23.14;68.67;98212.50;5011610;28;20734;-25
2023/09/30 00:48:35;;;;;;;2.47;2.00;;;;;;;23.13;68.75;98223.59;5009643;28;20582;-25
2023/09/30 00:51:02;;;;;;;2.37;2.00;;;;;;;23.15;68.99;98226.22;5011956;28;20276;-25
2023/09/30 00:53:28;;;;;;;2.30;2.10;;;;;;;23.15;68.71;98215.97;4993837;28;20202;-25
2023/09/30 00:55:56;;;;;;;2.47;2.03;;;;;;;23.15;68.69;98214.25;5011407;28;20206;-25
2023/09/30 00:58:27;;;;;;;2.37;2.10;;;;;;;23.16;68.69;98212.56;5012158;28;20225;-25
2023/09/30 01:00:53;;;;;;;2.90;2.10;;;;;;;23.13;68.65;98207.31;5007170;28;20256;-25
2023/09/30 01:03:20;;;;;;;3.80;2.10;;;;;;;23.15;68.71;98211.69;4995111;28;20217;-25
2023/09/30 01:05:47;;;;;;;2.00;1.80;;;;;;;23.10;68.71;98199.53;5013625;28;20198;-25
2023/09/30 01:08:14;;;;;;;2.13;1.90;;;;;;;23.15;68.73;98208.25;5014158;28;20872;-25
2023/09/30 01:10:40;;;;;;;2.17;1.97;;;;;;;23.15;68.63;98208.25;5015148;28;20715;-25
2023/09/30 01:13:07;;;;;;;1.90;1.73;;;;;;;23.14;68.72;98214.19;5013790;28;20253;-25
2023/09/30 01:15:34;;;;;;;2.53;2.23;;;;;;;23.14;68.87;98209.06;5014788;28;20264;-25
2023/09/30 01:18:01;;;;;;;2.53;2.10;;;;;;;23.13;68.60;98213.34;5015214;28;20651;-25
2023/09/30 01:20:27;;;;;;;2.60;2.20;;;;;;;23.13;68.75;98209.91;5014810;28;20217;-25
2023/09/30 01:22:55;;;;;;;2.00;1.80;;;;;;;23.14;68.82;98214.19;5014991;28;20256;-25
2023/09/30 01:25:21;;;;;;;2.07;1.87;;;;;;;23.14;68.72;98209.94;4997366;28;20206;-25
2023/09/30 01:27:48;;;;;;;2.23;2.03;;;;;;;23.09;68.84;98195.19;5015244;28;20620;-25
2023/09/30 01:30:15;;;;;;;2.17;1.97;;;;;;;23.14;68.69;98209.94;5014575;28;20198;-25
2023/09/30 01:32:42;;;;;;;2.53;2.07;;;;;;;23.14;68.83;98209.06;5014953;28;20202;-25
2023/09/30 01:35:09;;;;;;;2.20;1.97;;;;;;;23.13;68.78;98208.22;5014716;28;20202;-25
2023/09/30 01:37:36;;;;;;;2.37;1.80;;;;;;;23.15;68.71;98223.66;5014582;28;20309;-25
2023/09/30 01:40:03;;;;;;;2.40;2.13;;;;;;;23.14;68.65;98225.31;5014703;28;20284;-25
2023/09/30 01:42:30;;;;;;;2.23;2.00;;;;;;;23.14;68.80;98217.63;5014665;28;20209;-25
2023/09/30 01:44:57;;;;;;;2.57;1.97;;;;;;;23.14;68.77;98225.31;5014196;28;20198;-25
2023/09/30 01:47:24;;;;;;;2.73;2.20;;;;;;;23.14;68.80;98222.75;5013892;28;20248;-25
2023/09/30 01:49:51;;;;;;;2.53;2.10;;;;;;;23.14;68.82;98221.88;5014645;28;20625;-25
2023/09/30 01:52:17;;;;;;;2.90;2.40;;;;;;;23.14;68.72;98224.44;5014436;28;20202;-25
2023/09/30 01:54:44;;;;;;;3.00;2.23;;;;;;;23.13;68.67;98231.28;5011193;28;20203;-25
2023/09/30 01:57:11;;;;;;;2.43;2.17;;;;;;;23.14;68.66;98235.59;5006333;28;20233;-25
2023/09/30 01:59:37;;;;;;;2.83;2.27;;;;;;;23.13;68.88;98236.41;5014100;28;20248;-25
2023/09/30 02:02:04;;;;;;;2.60;2.17;;;;;;;23.13;68.87;98235.53;5014390;28;20237;-25
2023/09/30 02:04:31;;;;;;;3.47;2.40;;;;;;;23.14;68.89;98234.69;5013785;28;20202;-25
2023/09/30 02:06:57;;;;;;;2.60;2.00;;;;;;;23.13;68.82;98231.28;5014342;28;20202;-25
2023/09/30 02:09:24;;;;;;;2.90;2.50;;;;;;;23.15;68.83;98236.47;5005594;28;20226;-25
2023/09/30 02:11:50;;;;;;;2.50;2.20;;;;;;;23.14;68.75;98239.84;5013517;28;20195;-25
2023/09/30 02:14:17;;;;;;;2.33;2.13;;;;;;;23.14;68.97;98235.59;5013795;28;20198;-25
2023/09/30 02:16:44;;;;;;;2.53;1.90;;;;;;;23.15;68.94;98244.16;5013966;28;20206;-25
2023/09/30 02:19:10;;;;;;;2.73;2.50;;;;;;;23.15;68.80;98241.59;5013619;28;20222;-25
2023/09/30 02:21:38;;;;;;;2.83;2.30;;;;;;;23.15;68.70;98241.59;5013909;28;20202;-25
2023/09/30 02:24:06;;;;;;;2.70;2.27;;;;;;;23.15;68.88;98244.16;5013939;28;20202;-25
2023/09/30 02:26:33;;;;;;;2.73;2.30;;;;;;;23.14;68.74;98238.16;5013692;28;20746;-25
2023/09/30 02:29:00;;;;;;;3.47;2.50;;;;;;;23.14;68.79;98243.28;5014013;28;20210;-25
2023/09/30 02:31:27;;;;;;;2.60;2.27;;;;;;;23.13;68.89;98238.97;5013311;28;20549;-30
2023/09/30 02:33:54;;;;;;;2.60;2.10;;;;;;;23.13;68.85;98230.41;5013980;28;20198;-25
2023/09/30 02:36:20;;;;;;;2.20;2.00;;;;;;;23.13;68.76;98232.97;5013373;28;20261;-25
2023/09/30 02:38:48;;;;;;;3.33;2.40;;;;;;;23.13;68.74;98231.28;5013686;28;20226;-25
2023/09/30 02:41:15;;;;;;;2.37;2.17;;;;;;;23.10;68.88;98227.75;5013777;28;20257;-25
2023/09/30 02:43:42;;;;;;;2.40;2.10;;;;;;;23.14;68.87;98227.91;5012406;28;20257;-25
2023/09/30 02:46:08;;;;;;;2.40;2.10;;;;;;;23.14;68.98;98225.31;5013209;28;20386;-25
2023/09/30 02:48:35;;;;;;;2.90;2.20;;;;;;;23.14;68.72;98232.13;5013135;28;20238;-25
2023/09/30 02:51:02;;;;;;;2.63;2.33;;;;;;;23.13;68.90;98238.97;5013673;28;20198;-25
2023/09/30 02:53:28;;;;;;;2.53;2.10;;;;;;;23.14;68.81;98232.13;5012992;28;20202;-25
2023/09/30 02:55:58;;;;;;;2.40;2.20;;;;;;;23.14;68.62;98229.56;5013148;28;20249;-25
2023/09/30 02:58:24;;;;;;;2.53;2.17;;;;;;;23.14;68.81;98221.88;5013048;28;20226;-25
2023/09/30 03:00:51;;;;;;;2.73;2.20;;;;;;;23.14;69.03;98225.31;5013201;28;20226;-25
2023/09/30 03:03:18;;;;;;;2.90;2.27;;;;;;;23.13;68.76;98226.16;5012861;28;20735;-25
2023/09/30 03:05:45;;;;;;;2.63;2.17;;;;;;;23.13;68.92;98233.84;5001770;28;20195;-25
2023/09/30 03:08:12;;;;;;;2.23;2.03;;;;;;;23.13;69.05;98241.53;5008572;28;20222;-25
2023/09/30 03:10:40;;;;;;;3.23;2.47;;;;;;;23.12;68.96;98236.38;5012700;28;20198;-25
2023/09/30 03:13:08;;;;;;;2.43;2.10;;;;;;;23.12;68.99;98232.09;5012971;28;20213;-25
2023/09/30 03:15:35;;;;;;;2.80;2.37;;;;;;;23.12;68.73;98237.22;5012929;28;20237;-25
2023/09/30 03:18:03;;;;;;;2.30;1.93;;;;;;;23.13;68.60;98245.78;5012995;28;20225;-25
2023/09/30 03:20:30;;;;;;;2.53;2.23;;;;;;;23.13;68.80;98240.66;5011581;28;20662;-25
2023/09/30 03:22:57;;;;;;;2.33;2.13;;;;;;;23.12;68.92;98237.22;5012358;28;20198;-25
2023/09/30 03:25:24;;;;;;;2.37;2.03;;;;;;;23.13;68.95;98249.25;5012058;28;20210;-25
2023/09/30 03:27:50;;;;;;;2.77;2.37;;;;;;;23.13;68.35;98243.22;5010404;28;20218;-25
2023/09/30 03:30:19;;;;;;;3.17;2.30;;;;;;;23.12;68.93;98232.09;5012751;28;20228;-25
2023/09/30 03:32:47;;;;;;;2.63;2.30;;;;;;;23.13;68.95;98241.53;5012597;28;20202;-25
2023/09/30 03:35:17;;;;;;;2.40;2.03;;;;;;;23.14;68.95;98245.84;5012600;28;20623;-25
2023/09/30 03:37:45;;;;;;;2.60;2.30;;;;;;;23.14;68.80;98239.84;5010052;28;20223;-25
2023/09/30 03:40:14;;;;;;;3.10;2.37;;;;;;;23.15;68.81;98239.03;5004779;28;20218;-25
2023/09/30 03:42:43;;;;;;;3.00;2.30;;;;;;;23.14;68.90;98232.13;5012417;28;20202;-25
2023/09/30 03:45:10;;;;;;;2.47;1.93;;;;;;;23.14;68.63;98234.69;5007409;28;20281;-25
2023/09/30 03:47:37;;;;;;;4.70;2.27;;;;;;;23.13;68.93;98238.09;5010485;28;20234;-25
2023/09/30 03:50:05;;;;;;;2.57;2.37;;;;;;;23.13;68.80;98232.97;5012361;28;20672;-25
2023/09/30 03:52:33;;;;;;;2.83;2.23;;;;;;;23.13;68.74;98230.41;5003837;28;20261;-25
2023/09/30 03:55:04;;;;;;;2.77;2.10;;;;;;;23.13;68.81;98233.84;5012225;28;20206;-26
2023/09/30 03:57:33;;;;;;;2.67;2.47;;;;;;;23.13;68.85;98230.41;5004112;28;20226;-25
2023/09/30 04:00:00;;;;;;;2.90;2.13;;;;;;;23.13;68.92;98227.84;5012050;28;20307;-25
2023/09/30 04:02:27;;;;;;;2.70;2.20;;;;;;;23.13;68.81;98232.97;5011638;28;20257;-25
2023/09/30 04:04:55;;;;;;;3.00;2.43;;;;;;;23.13;68.76;98241.53;5012304;28;20202;-25
2023/09/30 04:07:27;;;;;;;2.20;2.00;;;;;;;23.13;68.83;98238.09;5012035;28;20572;-25
2023/09/30 04:09:56;;;;;;;2.30;2.00;;;;;;;23.12;68.88;98236.38;5006170;28;20252;-25
2023/09/30 04:12:23;;;;;;;2.87;2.37;;;;;;;23.13;68.87;98235.53;5008154;28;20202;-25
2023/09/30 04:14:50;;;;;;;2.87;2.40;;;;;;;23.13;68.94;98238.09;5011579;28;20561;-25
2023/09/30 04:17:16;;;;;;;2.97;2.40;;;;;;;23.13;68.72;98238.97;5012101;28;20437;-25
2023/09/30 04:19:43;;;;;;;2.63;2.20;;;;;;;23.13;68.84;98243.22;5011651;28;20696;-25
2023/09/30 04:22:10;;;;;;;2.80;2.33;;;;;;;23.13;68.88;98248.34;5012433;28;20209;-25
2023/09/30 04:24:36;;;;;;;2.50;2.20;;;;;;;23.12;68.98;98250.03;5011458;28;20684;-25
2023/09/30 04:27:05;;;;;;;2.30;2.07;;;;;;;23.12;68.84;98241.50;5011978;28;20389;-25
2023/09/30 04:29:32;;;;;;;3.40;2.63;;;;;;;23.12;68.94;98238.94;5011457;28;20696;-25
2023/09/30 04:31:59;;;;;;;2.90;2.30;;;;;;;23.13;68.83;98240.66;5011944;28;20252;-25
2023/09/30 04:34:27;;;;;;;2.77;2.43;;;;;;;23.11;69.02;98245.75;5011069;28;20199;-25
2023/09/30 04:36:54;;;;;;;2.47;2.20;;;;;;;23.12;68.90;98250.03;5003827;28;20221;-25
2023/09/30 04:39:21;;;;;;;2.90;2.17;;;;;;;23.12;68.89;98254.31;5011554;28;20417;-25
2023/09/30 04:41:47;;;;;;;2.40;2.20;;;;;;;23.11;68.93;98263.69;5011454;28;20216;-26
2023/09/30 04:44:14;;;;;;;2.70;2.13;;;;;;;23.12;69.00;98267.13;5011916;28;20210;-25
2023/09/30 04:46:45;;;;;;;2.93;2.60;;;;;;;23.12;69.03;98269.69;5010943;28;20199;-25
2023/09/30 04:49:15;;;;;;;2.80;2.50;;;;;;;23.12;68.94;98267.97;5011734;28;20308;-23
2023/09/30 04:51:42;;;;;;;3.10;2.37;;;;;;;23.12;68.99;98262.84;5011583;28;20198;-23
2023/09/30 04:54:08;;;;;;;2.33;2.00;;;;;;;23.12;68.77;98267.97;5007972;28;20252;-23
2023/09/30 04:56:35;;;;;;;2.40;2.20;;;;;;;23.13;69.00;98276.56;5004799;28;20579;-22
2023/09/30 04:59:02;;;;;;;3.20;2.70;;;;;;;23.12;68.93;98274.81;5011401;28;20224;-24
2023/09/30 05:01:29;;;;;;;2.50;2.30;;;;;;;23.11;68.95;98275.63;5011324;28;20213;-24
2023/09/30 05:03:56;;;;;;;2.47;2.00;;;;;;;23.11;68.87;98265.38;5011305;28;20198;-24
2023/09/30 05:06:23;;;;;;;3.10;2.47;;;;;;;23.12;68.76;98277.41;5011278;28;20206;-24
2023/09/30 05:08:50;;;;;;;2.33;2.07;;;;;;;23.10;69.00;98274.78;5011295;28;20256;-24
2023/09/30 05:11:16;;;;;;;3.23;2.50;;;;;;;23.12;69.08;98285.09;5011729;28;20230;-24
2023/09/30 05:13:43;;;;;;;3.03;2.30;;;;;;;23.11;69.08;98285.88;5011350;28;20206;-25
2023/09/30 05:16:10;;;;;;;3.07;2.30;;;;;;;23.11;69.00;98289.34;5011346;28;20628;-24
2023/09/30 05:18:38;;;;;;;2.97;2.63;;;;;;;23.11;68.99;98291.91;5011064;28;20265;-24
2023/09/30 05:21:06;;;;;;;2.87;2.20;;;;;;;23.11;68.83;98291.00;5010874;28;20214;-24
2023/09/30 05:23:33;;;;;;;2.93;2.33;;;;;;;23.11;69.04;98285.88;5011519;28;20214;-24
2023/09/30 05:26:00;;;;;;;2.87;2.40;;;;;;;23.11;69.00;98281.63;5007535;28;20285;-24
2023/09/30 05:28:27;;;;;;;2.87;2.30;;;;;;;23.12;68.96;98288.50;5010951;28;20218;-24
2023/09/30 05:30:53;;;;;;;2.93;2.30;;;;;;;23.12;68.96;98292.78;5009506;28;20442;-24
2023/09/30 05:33:20;;;;;;;3.50;2.47;;;;;;;23.12;68.98;98300.47;5005012;28;20207;-23
2023/09/30 05:35:47;;;;;;;2.73;2.20;;;;;;;23.12;68.94;98296.19;5006542;28;20215;-24
2023/09/30 05:38:14;;;;;;;2.20;2.00;;;;;;;23.12;68.96;98297.91;5011370;28;20230;-24
2023/09/30 05:40:41;;;;;;;3.83;2.50;;;;;;;23.11;68.93;98289.34;5011136;28;20257;-24
2023/09/30 05:43:08;;;;;;;3.17;2.63;;;;;;;23.12;69.04;98285.94;5002945;28;20195;-24
2023/09/30 05:45:35;;;;;;;3.43;2.43;;;;;;;23.11;69.09;98288.44;5013454;28;20202;-24
2023/09/30 05:48:04;;;;;;;3.10;2.50;;;;;;;23.11;69.03;98303.84;5014046;28;20226;-24
2023/09/30 05:50:36;;;;;;;3.57;2.77;;;;;;;23.10;69.03;98305.53;5014462;28;20206;-24
2023/09/30 05:53:04;;;;;;;2.93;2.40;;;;;;;23.11;69.00;98306.41;5014714;28;20281;-24
2023/09/30 05:55:31;;;;;;;2.60;2.10;;;;;;;23.10;69.03;98308.09;5007849;28;20203;-24
2023/09/30 05:58:00;;;;;;;2.63;2.13;;;;;;;23.11;69.03;98320.09;5013718;28;20226;-24
2023/09/30 06:00:30;;;;;;;4.10;2.50;;;;;;;23.12;68.97;98320.97;5014140;28;20222;-23
2023/09/30 06:02:58;;;;;;;2.77;2.23;;;;;;;23.12;68.96;98320.97;5013709;28;20213;-23
2023/09/30 06:05:32;;;;;;;2.70;2.23;;;;;;;23.11;69.03;98317.53;5014133;28;20572;-24
2023/09/30 06:08:00;;;;;;;2.30;2.10;;;;;;;23.13;68.90;98335.53;5014136;28;20230;-23
2023/09/30 06:10:26;;;;;;;2.40;2.10;;;;;;;23.13;68.97;98341.56;5014186;28;20202;-24
2023/09/30 06:12:56;;;;;;;3.10;2.60;;;;;;;23.12;69.09;98339.78;5013882;28;20272;-23
2023/09/30 06:15:25;;;;;;;2.60;2.10;;;;;;;23.12;68.99;98341.50;5013952;28;20202;-24
2023/09/30 06:17:53;;;;;;;3.13;2.43;;;;;;;23.13;69.14;98350.94;5014213;28;20309;-24
2023/09/30 06:20:22;;;;;;;2.70;2.23;;;;;;;23.12;69.02;98350.03;5013914;28;20261;-24
2023/09/30 06:22:49;;;;;;;2.67;2.33;;;;;;;23.12;68.89;98346.63;5013777;28;20198;-23
2023/09/30 06:25:16;;;;;;;2.83;2.40;;;;;;;23.10;68.94;98341.44;5013601;28;20203;-24
2023/09/30 06:27:44;;;;;;;3.13;2.30;;;;;;;23.11;68.92;98348.31;5014225;28;20226;-24
2023/09/30 06:30:11;;;;;;;4.10;2.53;;;;;;;23.11;69.06;98350.88;5014003;28;20276;-23
2023/09/30 06:32:38;;;;;;;3.43;2.43;;;;;;;23.11;69.08;98360.25;5013650;28;20713;-24
2023/09/30 06:35:06;;;;;;;3.63;2.40;;;;;;;23.12;68.82;98357.72;5008820;28;20285;-23
2023/09/30 06:37:33;;;;;;;2.70;2.27;;;;;;;23.13;69.00;98353.50;5010361;28;20234;-22
2023/09/30 06:40:02;;;;;;;2.77;2.47;;;;;;;23.12;68.97;98357.72;5013163;28;20280;-24
2023/09/30 06:42:29;;;;;;;2.57;1.90;;;;;;;23.12;69.00;98359.44;5013770;28;20210;-24
2023/09/30 06:44:56;;;;;;;2.90;2.30;;;;;;;23.12;69.13;98370.56;5013465;28;20549;-23
2023/09/30 06:47:23;;;;;;;2.60;2.40;;;;;;;23.13;69.07;98374.00;5012926;28;20241;-24
2023/09/30 06:49:50;;;;;;;3.83;2.10;;;;;;;23.13;68.98;98374.00;5013431;28;20265;-25
2023/09/30 06:52:17;;;;;;;3.00;2.10;;;;;;;22.51;68.91;98274.31;5013537;28;20202;-24
2023/09/30 06:54:44;;;;;;;2.40;2.20;;;;;;;23.12;69.02;98382.53;5013308;28;20202;-23
2023/09/30 06:57:10;;;;;;;2.37;2.17;;;;;;;23.13;69.16;98386.81;5013134;28;20550;-24
2023/09/30 06:59:37;;;;;;;2.70;2.30;;;;;;;23.11;68.96;98389.34;5013263;28;20214;-23
2023/09/30 07:02:04;;;;;;;2.30;2.10;;;;;;;23.12;69.06;98396.19;5012962;28;20206;-24
2023/09/30 07:04:30;;;;;;;3.00;2.47;;;;;;;23.11;68.93;98394.47;5012652;28;20203;-24
2023/09/30 07:06:57;;;;;;;2.33;2.07;;;;;;;23.11;69.07;98401.28;5012244;28;20200;-22
2023/09/30 07:09:24;;;;;;;2.87;2.20;;;;;;;23.06;68.95;98389.97;5013079;28;20659;-23
2023/09/30 07:11:52;;;;;;;3.13;2.20;;;;;;;23.11;69.25;98409.84;5013032;28;20202;-24
2023/09/30 07:14:18;;;;;;;2.63;2.33;;;;;;;23.11;68.98;98411.53;5013023;28;20203;-24
2023/09/30 07:16:45;;;;;;;3.03;2.13;;;;;;;23.12;68.94;98413.31;5012622;28;20206;-23
2023/09/30 07:19:12;;;;;;;2.90;2.33;;;;;;;23.11;69.15;98414.97;5012942;28;20218;-24
2023/09/30 07:21:39;;;;;;;3.07;2.30;;;;;;;23.12;68.92;98421.00;5012559;28;20288;-23
2023/09/30 07:24:06;;;;;;;2.27;2.00;;;;;;;23.12;69.02;98421.00;5012998;28;20210;-23
2023/09/30 07:26:32;;;;;;;2.57;2.00;;;;;;;23.12;69.03;98428.69;5012670;28;20630;-24
2023/09/30 07:28:59;;;;;;;2.43;2.07;;;;;;;23.12;68.82;98424.41;5011537;28;20233;-24
2023/09/30 07:31:26;;;;;;;2.80;2.30;;;;;;;23.12;69.00;98431.25;5011964;28;20202;-23
2023/09/30 07:33:52;;;;;;;2.60;2.13;;;;;;;23.11;69.13;98427.81;5012700;28;20264;-23
2023/09/30 07:36:19;;;;;;;2.20;2.00;;;;;;;23.12;69.30;98428.69;5012357;28;20281;-24
2023/09/30 07:38:47;;;;;;;2.80;2.30;;;;;;;23.11;68.98;98432.03;5005820;28;20222;-24
2023/09/30 07:41:13;;;;;;;2.80;2.30;;;;;;;23.11;68.98;98429.47;5012394;28;20648;-24
2023/09/30 07:43:40;;;;;;;2.30;2.10;;;;;;;23.10;68.98;98436.31;5012578;28;20206;-24
2023/09/30 07:46:07;;;;;;;2.53;2.10;;;;;;;23.10;69.02;98425.19;5011645;28;20723;-24
2023/09/30 07:48:35;;;;;;;2.40;2.00;;;;;;;23.11;69.07;98430.38;5007143;28;20237;-24
2023/09/30 07:51:02;;;;;;;2.70;2.30;;;;;;;23.11;68.94;98429.47;5012249;28;20285;-24
2023/09/30 07:53:28;;;;;;;2.77;2.17;;;;;;;23.11;69.00;98432.03;5004122;28;20206;-24
2023/09/30 07:55:56;;;;;;;2.37;2.17;;;;;;;23.10;69.09;98426.06;5012043;28;20231;-24
2023/09/30 07:58:23;;;;;;;2.90;1.90;;;;;;;23.11;69.00;98426.91;5012121;28;20221;-24
2023/09/30 08:00:50;;;;;;;2.50;2.10;;;;;;;23.11;69.18;98422.66;5011782;28;20230;-22
2023/09/30 08:03:17;;;;;;;2.57;2.20;;;;;;;23.11;69.00;98430.38;5012351;28;20297;-24
2023/09/30 08:05:46;;;;;;;2.30;2.10;;;;;;;23.12;69.06;98429.53;5012104;28;20239;-24
2023/09/30 08:08:14;;;;;;;2.70;2.30;;;;;;;23.11;69.30;98432.94;5011104;28;20222;-22
2023/09/30 08:10:42;;;;;;;2.30;1.90;;;;;;;23.12;68.97;98431.25;5012189;28;20569;-25
2023/09/30 08:13:09;;;;;;;2.00;1.80;;;;;;;23.12;69.22;98428.69;5009221;28;20665;-23
2023/09/30 08:15:36;;;;;;;2.80;2.03;;;;;;;23.12;69.09;98431.25;5010457;28;20213;-24
2023/09/30 08:18:05;;;;;;;2.23;2.03;;;;;;;23.11;68.96;98439.75;5012159;28;20269;-23
2023/09/30 08:20:32;;;;;;;2.50;2.10;;;;;;;23.11;68.95;98444.88;5011180;28;20743;-24
2023/09/30 08:22:59;;;;;;;3.03;2.37;;;;;;;22.97;69.04;98417.81;5011709;28;20731;-24
2023/09/30 08:25:26;;;;;;;2.47;2.20;;;;;;;23.10;68.93;98441.44;5010474;28;20205;-23
2023/09/30 08:27:54;;;;;;;2.10;1.90;;;;;;;23.11;69.15;98450.00;5003319;28;20229;-24
2023/09/30 08:30:21;;;;;;;2.37;2.00;;;;;;;23.05;68.99;98442.94;5011943;28;20588;-24
2023/09/30 08:32:48;;;;;;;2.30;2.10;;;;;;;23.11;69.07;98445.75;5011712;28;20198;-24
2023/09/30 08:35:15;;;;;;;2.37;1.77;;;;;;;23.12;68.99;98449.19;5011727;28;20202;-24
2023/09/30 08:37:41;;;;;;;2.13;1.93;;;;;;;23.11;68.81;98448.31;5011573;28;20218;-24
2023/09/30 08:40:09;;;;;;;2.40;2.13;;;;;;;23.12;68.96;98449.19;5011409;28;20215;-23
2023/09/30 08:42:38;;;;;;;2.43;2.03;;;;;;;23.13;68.94;98445.81;5011796;28;20635;-24
2023/09/30 08:45:07;;;;;;;2.07;1.87;;;;;;;23.12;69.05;98439.78;5010417;28;20203;-23
2023/09/30 08:47:35;;;;;;;2.10;1.90;;;;;;;23.11;69.09;98437.16;5009793;28;20229;-24
2023/09/30 08:50:05;;;;;;;2.50;2.00;;;;;;;23.12;69.16;98451.75;5010185;28;20738;-24
2023/09/30 08:52:33;;;;;;;2.13;1.93;;;;;;;23.11;68.86;98462.81;4995076;28;20309;-24
2023/09/30 08:55:06;;;;;;;2.43;2.00;;;;;;;23.11;69.08;98457.69;5005578;28;20653;-23
2023/09/30 08:57:33;;;;;;;1.93;1.73;;;;;;;23.12;69.49;98467.16;5011608;28;20230;-23
2023/09/30 09:00:00;;;;;;;2.30;2.00;;;;;;;23.07;68.98;98461.81;4994142;28;20237;-24
2023/09/30 09:02:27;;;;;;;2.20;2.00;;;;;;;23.10;69.23;98461.97;5010108;28;20225;-23
2023/09/30 09:04:54;;;;;;;2.30;1.90;;;;;;;23.11;68.98;98460.25;5010325;28;20202;-23
2023/09/30 09:07:20;;;;;;;2.20;1.83;;;;;;;23.11;68.94;98457.69;5011528;28;20202;-23
2023/09/30 09:10:13;;;;;;;2.40;1.97;;;;;;;23.11;69.06;98467.94;5011902;28;20596;-24
2023/09/30 09:12:40;;;;;;;1.77;1.67;;;;;;;23.11;69.04;98462.81;5004550;28;20194;-23
2023/09/30 09:15:08;;;;;;;2.20;1.90;;;;;;;23.11;69.10;98462.81;5011280;28;20240;-24
2023/09/30 09:17:45;;;;;;;8.47;2.13;;;;;;;23.12;69.06;98464.59;5011195;28;20222;-24
2023/09/30 09:20:20;;;;;;;2.10;1.90;;;;;;;23.12;69.09;98454.31;5013476;28;20199;-23
2023/09/30 09:22:48;;;;;;;2.10;1.73;;;;;;;23.12;69.24;98449.19;5015161;28;20204;-24
2023/09/30 09:25:14;;;;;;;2.37;1.97;;;;;;;23.11;68.99;98445.75;5014835;28;20206;-23
2023/09/30 09:27:41;;;;;;;2.13;1.90;;;;;;;23.11;69.06;98450.88;5014721;28;20230;-24
2023/09/30 09:30:20;;;;;;;2.13;1.93;;;;;;;23.12;69.09;98444.91;5013812;28;20201;-24
2023/09/30 09:33:06;;;;;;;1.70;1.60;;;;;;;23.11;69.00;98439.75;5003120;28;20202;-24
2023/09/30 09:35:34;;;;;;;1.93;1.80;;;;;;;23.11;69.10;98447.44;5007922;28;20204;-23
2023/09/30 09:38:04;;;;;;;2.23;1.90;;;;;;;23.11;68.94;98450.00;5014894;28;20226;-23
2023/09/30 09:40:32;;;;;;;2.77;1.80;;;;;;;23.11;69.13;98450.00;5015144;28;20213;-22
2023/09/30 09:43:00;;;;;;;2.00;1.70;;;;;;;23.10;68.97;98445.69;5014738;28;20687;-24
2023/09/30 09:45:27;;;;;;;2.30;2.10;;;;;;;23.11;69.00;98439.75;5007087;28;20202;-25
2023/09/30 09:47:54;;;;;;;2.20;1.90;;;;;;;23.10;69.16;98431.19;5013910;28;20284;-24
2023/09/30 09:50:22;;;;;;;1.90;1.70;;;;;;;23.10;69.10;98428.63;5014273;28;20234;-23
2023/09/30 09:52:50;;;;;;;1.87;1.73;;;;;;;23.11;68.94;98427.81;5014708;28;20618;-24
2023/09/30 09:55:21;;;;;;;2.03;1.83;;;;;;;23.11;68.94;98430.38;5014331;28;20210;-24
2023/09/30 09:57:48;;;;;;;1.90;1.77;;;;;;;23.11;69.01;98430.38;5014458;28;20616;-24
2023/09/30 10:00:18;;;;;;;2.00;1.80;;;;;;;23.12;68.85;98438.94;5014154;28;20208;-24
2023/09/30 10:02:46;;;;;;;1.93;1.73;;;;;;;23.12;69.06;98433.81;5012719;28;20700;-24
2023/09/30 10:05:13;;;;;;;2.70;1.73;;;;;;;23.12;68.82;98436.38;5013616;28;20202;-24
2023/09/30 10:07:50;;;;;;;1.73;1.63;;;;;;;23.12;69.13;98428.69;5014294;28;20722;-24
2023/09/30 10:10:18;;;;;;;2.03;1.83;;;;;;;23.11;69.01;98430.38;5014328;28;20212;-23
2023/09/30 10:12:45;;;;;;;1.77;1.67;;;;;;;23.11;69.15;98422.66;5012866;28;20248;-24
2023/09/30 10:15:24;;;;;;;2.13;1.73;;;;;;;23.10;68.82;98426.06;5012798;28;20198;-24
2023/09/30 10:17:58;;;;;;;1.97;1.70;;;;;;;23.11;69.03;98426.91;5013862;28;20712;-24
2023/09/30 10:20:31;;;;;;;2.03;1.80;;;;;;;23.11;68.98;98425.25;5011135;28;20575;-24
2023/09/30 10:23:17;;;;;;;2.10;1.90;;;;;;;23.10;69.22;98425.19;5013220;28;20199;-23
2023/09/30 10:25:47;;;;;;;1.73;1.63;;;;;;;23.11;69.07;98425.25;5008164;28;20194;-23
2023/09/30 10:28:36;;;;;;;2.03;1.80;;;;;;;23.12;69.06;98413.31;5003133;28;20222;-24
2023/09/30 10:31:12;;;;;;;2.30;2.07;;;;;;;23.11;68.86;98421.78;5012871;28;20582;-23
2023/09/30 10:34:01;;;;;;;1.73;1.60;;;;;;;23.11;69.08;98424.34;5008834;28;20203;-24
2023/09/30 10:36:40;;;;;;;2.10;1.90;;;;;;;23.11;69.05;98414.97;5013327;28;20198;-22
2023/09/30 10:39:14;;;;;;;1.67;1.50;;;;;;;23.12;68.72;98421.84;5012423;28;20218;-24
2023/09/30 10:41:41;;;;;;;1.80;1.70;;;;;;;23.12;68.89;98410.72;5013508;28;20245;-24
2023/09/30 10:44:29;;;;;;;1.70;1.60;;;;;;;23.12;68.97;98408.16;5013081;28;20205;-24
2023/09/30 10:47:00;;;;;;;1.83;1.70;;;;;;;23.11;68.75;98402.16;5008913;28;20668;-24
2023/09/30 10:49:27;;;;;;;1.70;1.60;;;;;;;23.11;68.94;98412.41;5013681;28;20230;-25
2023/09/30 10:51:55;;;;;;;1.77;1.50;;;;;;;23.10;69.04;98423.50;5013442;28;20190;-25
2023/09/30 10:54:23;;;;;;;2.10;1.90;;;;;;;23.11;68.86;98426.91;5013293;28;20198;-26
2023/09/30 10:56:49;;;;;;;2.20;1.80;;;;;;;23.11;68.99;98426.91;5013478;28;20202;-25
2023/09/30 10:59:20;;;;;;;1.70;1.60;;;;;;;23.11;68.91;98438.06;5004002;28;20250;-25
2023/09/30 11:01:46;;;;;;;1.70;1.60;;;;;;;23.12;68.90;98436.38;5013141;28;20222;-25
2023/09/30 11:04:13;;;;;;;2.03;1.83;;;;;;;23.12;68.83;98426.97;5004792;28;20630;-25
2023/09/30 11:06:40;;;;;;;1.53;1.43;;;;;;;23.11;69.02;98429.47;5012786;28;20289;-25
2023/09/30 11:09:13;;;;;;;2.17;1.97;;;;;;;23.11;68.96;98427.81;5013192;28;20218;-25
2023/09/30 11:11:44;;;;;;;1.50;1.40;;;;;;;23.12;68.94;98429.53;5007406;28;20202;-25
2023/09/30 11:14:30;;;;;;;1.77;1.63;;;;;;;23.12;69.01;98426.97;5012800;28;20203;-25
2023/09/30 11:17:01;;;;;;;1.57;1.47;;;;;;;23.13;69.01;98422.72;5012723;28;20568;-25
2023/09/30 11:19:46;;;;;;;1.80;1.57;;;;;;;23.14;68.89;98419.34;5004458;28;20222;-25
2023/09/30 11:22:12;;;;;;;1.97;1.63;;;;;;;23.10;68.93;98418.38;5012773;28;20225;-25
2023/09/30 11:24:39;;;;;;;1.60;1.50;;;;;;;23.13;68.92;98426.19;4995255;28;20198;-25
2023/09/30 11:27:06;;;;;;;1.60;1.37;;;;;;;23.12;68.98;98432.09;5008380;28;20194;-25
2023/09/30 11:29:32;;;;;;;2.00;1.70;;;;;;;23.12;68.81;98426.97;5012274;28;20276;-25
2023/09/30 11:31:59;;;;;;;2.20;2.00;;;;;;;23.11;68.70;98419.22;5011888;28;20637;-25
2023/09/30 11:34:35;;;;;;;1.60;1.50;;;;;;;23.11;68.81;98414.09;5012024;28;20207;-25
2023/09/30 11:37:03;;;;;;;1.70;1.60;;;;;;;23.12;68.93;98408.16;5011661;28;20621;-25
2023/09/30 11:39:29;;;;;;;1.67;1.47;;;;;;;23.11;68.91;98409.84;5012225;28;20260;-25